Aviation Digital Data Service (ADDS)

Output produced by METARs form (2338 UTC 26 May 2018)
found at http://aviationweather.gov/adds/metars/
 
KAEX 262322Z 2700/2724 VRB05KT P6SM VCTS SCT035CB 
     TEMPO 2700/2701 2SM TSRA BKN025CB 
     FM270100 VRB03KT P6SM SKC